Time;durP1;ratioP1;P1;durP2;ratioP2;P2;SDS_P1;SDS_P2;PMS_P1;PMS_P2;Temp;Humidity;BMP_temperature;BMP_pressure;BME280_temperature;BME280_humidity;BME280_pressure;Samples;Min_cycle;Max_cycle;Signal;HPM_P1;HPM_P2
2023/04/23 00:03:18;;;;;;;2.40;2.20;;;;;;;;;;10281047;28;20222;-82
2023/04/23 00:08:19;;;;;;;1.83;1.73;;;;;;;;;;10275539;28;20241;-81
2023/04/23 00:13:20;;;;;;;2.17;2.08;;;;;;;;;;10276737;28;20227;-81
2023/04/23 00:18:22;;;;;;;2.38;2.15;;;;;;;;;;10263557;28;20289;-80
2023/04/23 00:23:23;;;;;;;2.00;1.90;;;;;;;;;;10276484;28;20237;-81
2023/04/23 00:28:24;;;;;;;4.07;1.85;;;;;;;;;;10266600;28;20700;-80
2023/04/23 00:33:25;;;;;;;1.73;1.55;;;;;;;;;;10270839;28;20309;-81
2023/04/23 00:38:26;;;;;;;2.05;1.92;;;;;;;;;;10271854;28;20490;-81
2023/04/23 00:43:27;;;;;;;4.32;2.15;;;;;;;;;;10261909;28;20592;-81
2023/04/23 00:48:29;;;;;;;2.17;2.15;;;;;;;;;;10262961;28;20214;-81
2023/04/23 00:53:30;;;;;;;1.85;1.75;;;;;;;;;;10276073;28;20217;-80
2023/04/23 00:58:31;;;;;;;2.17;2.13;;;;;;;;;;10281818;28;20312;-81
2023/04/23 01:03:35;;;;;;;1.73;1.73;;;;;;;;;;10255901;28;20244;-81
2023/04/23 01:08:36;;;;;;;2.47;2.25;;;;;;;;;;10279184;28;20245;-81
2023/04/23 01:13:37;;;;;;;2.35;2.25;;;;;;;;;;10262636;28;20210;-81
2023/04/23 01:18:39;;;;;;;3.10;2.75;;;;;;;;;;10242993;28;20676;-81
2023/04/23 01:23:41;;;;;;;2.67;2.55;;;;;;;;;;10276321;28;20284;-82
2023/04/23 01:28:44;;;;;;;2.65;2.53;;;;;;;;;;10247104;28;20564;-81
2023/04/23 01:33:46;;;;;;;2.90;2.80;;;;;;;;;;10272435;28;20256;-82
2023/04/23 01:38:47;;;;;;;5.00;2.60;;;;;;;;;;10262479;28;20424;-82
2023/04/23 01:43:48;;;;;;;3.00;2.80;;;;;;;;;;10272010;28;20688;-82
2023/04/23 01:48:51;;;;;;;2.67;2.53;;;;;;;;;;10273635;28;20865;-81
2023/04/23 01:53:52;;;;;;;2.55;2.35;;;;;;;;;;10268984;28;20222;-81
2023/04/23 01:58:53;;;;;;;3.45;2.88;;;;;;;;;;10263579;28;20352;-81
2023/04/23 02:03:54;;;;;;;3.30;3.20;;;;;;;;;;10237926;28;20225;-81
2023/04/23 02:08:55;;;;;;;2.97;2.78;;;;;;;;;;10260836;28;20304;-82
2023/04/23 02:13:58;;;;;;;2.80;2.60;;;;;;;;;;10257952;28;20628;-81
2023/04/23 02:19:26;;;;;;;2.45;2.30;;;;;;;;;;10257495;28;20218;-82
2023/04/23 02:24:29;;;;;;;3.30;2.83;;;;;;;;;;10244391;28;20611;-81
2023/04/23 02:29:30;;;;;;;3.67;3.40;;;;;;;;;;10264598;28;20227;-81
2023/04/23 02:34:31;;;;;;;3.35;3.03;;;;;;;;;;10253598;28;20569;-81
2023/04/23 02:39:32;;;;;;;3.25;3.03;;;;;;;;;;10274254;28;20232;-81
2023/04/23 02:44:33;;;;;;;2.95;2.85;;;;;;;;;;10263077;28;20284;-81
2023/04/23 02:49:35;;;;;;;3.13;3.03;;;;;;;;;;10276376;28;20754;-81
2023/04/23 02:54:36;;;;;;;3.17;3.03;;;;;;;;;;10273132;28;20335;-81
2023/04/23 02:59:37;;;;;;;5.47;2.88;;;;;;;;;;10272706;28;20253;-82
2023/04/23 03:04:38;;;;;;;3.75;2.47;;;;;;;;;;10263966;28;20217;-82
2023/04/23 03:09:41;;;;;;;3.40;3.15;;;;;;;;;;10234353;28;20323;-81
2023/04/23 03:14:42;;;;;;;3.63;3.33;;;;;;;;;;10258397;28;20949;-81
2023/04/23 03:19:43;;;;;;;3.38;3.17;;;;;;;;;;10273767;28;20582;-81
2023/04/23 03:24:45;;;;;;;2.70;2.53;;;;;;;;;;10252865;28;20276;-82
2023/04/23 03:29:46;;;;;;;3.35;3.15;;;;;;;;;;10235236;28;20598;-81
2023/04/23 03:34:47;;;;;;;2.63;2.53;;;;;;;;;;10258268;28;20739;-81
2023/04/23 03:39:48;;;;;;;5.10;3.72;;;;;;;;;;10247676;28;20241;-82
2023/04/23 03:44:51;;;;;;;3.38;3.17;;;;;;;;;;10275238;28;20264;-81
2023/04/23 03:49:52;;;;;;;3.05;2.85;;;;;;;;;;10270766;28;20226;-81
2023/04/23 03:54:54;;;;;;;2.78;2.67;;;;;;;;;;10264694;28;20229;-81
2023/04/23 04:00:01;;;;;;;3.20;3.00;;;;;;;;;;10283339;28;20229;-81
2023/04/23 04:05:03;;;;;;;2.30;2.20;;;;;;;;;;10259192;28;20218;-81
2023/04/23 04:10:06;;;;;;;2.08;1.98;;;;;;;;;;10282947;28;20213;-81
2023/04/23 04:15:07;;;;;;;2.63;2.45;;;;;;;;;;10275440;28;20316;-82
2023/04/23 04:20:09;;;;;;;2.28;2.15;;;;;;;;;;10275713;28;20268;-81
2023/04/23 04:25:11;;;;;;;2.22;2.13;;;;;;;;;;10261640;28;20224;-81
2023/04/23 04:30:12;;;;;;;2.67;2.58;;;;;;;;;;10266805;28;20767;-81
2023/04/23 04:35:13;;;;;;;3.00;2.90;;;;;;;;;;10281308;28;20213;-83
2023/04/23 04:40:14;;;;;;;2.92;2.83;;;;;;;;;;10261714;28;20662;-82
2023/04/23 04:45:15;;;;;;;2.55;2.45;;;;;;;;;;10258615;28;20224;-83
2023/04/23 04:50:16;;;;;;;3.05;2.95;;;;;;;;;;10247882;28;21299;-81
2023/04/23 04:55:17;;;;;;;3.40;3.13;;;;;;;;;;10263055;28;20214;-81
2023/04/23 05:00:23;;;;;;;3.08;2.92;;;;;;;;;;10251899;28;20228;-82
2023/04/23 05:05:25;;;;;;;3.17;2.97;;;;;;;;;;10248979;28;20577;-81
2023/04/23 05:10:26;;;;;;;3.45;2.80;;;;;;;;;;10260938;28;20251;-82
2023/04/23 05:15:27;;;;;;;2.55;2.42;;;;;;;;;;10276478;28;20309;-83
2023/04/23 05:20:28;;;;;;;2.72;2.63;;;;;;;;;;10279711;28;20679;-81
2023/04/23 05:25:29;;;;;;;2.78;2.58;;;;;;;;;;10257855;28;20283;-82
2023/04/23 05:30:31;;;;;;;2.83;2.72;;;;;;;;;;10279386;28;20259;-81
2023/04/23 05:35:32;;;;;;;2.42;2.33;;;;;;;;;;10299534;28;20228;-81
2023/04/23 05:40:33;;;;;;;3.10;2.90;;;;;;;;;;10296980;28;20221;-83
2023/04/23 05:45:34;;;;;;;3.80;2.85;;;;;;;;;;10288691;28;20227;-81
2023/04/23 05:50:35;;;;;;;2.70;2.58;;;;;;;;;;10287446;28;20232;-83
2023/04/23 05:55:36;;;;;;;2.88;2.78;;;;;;;;;;10273819;28;20224;-82
2023/04/23 06:00:39;;;;;;;3.35;3.15;;;;;;;;;;10290559;28;20245;-83
2023/04/23 06:05:42;;;;;;;3.60;2.08;;;;;;;;;;10300356;28;20229;-82
2023/04/23 06:10:42;;;;;;;3.15;3.05;;;;;;;;;;10270421;28;20221;-83
2023/04/23 06:15:44;;;;;;;3.67;3.40;;;;;;;;;;10267943;28;20275;-82
2023/04/23 06:20:46;;;;;;;4.55;4.25;;;;;;;;;;10280436;28;20221;-82
2023/04/23 06:25:47;;;;;;;6.15;5.20;;;;;;;;;;10263129;28;20254;-81
2023/04/23 06:30:48;;;;;;;8.13;5.57;;;;;;;;;;10284107;28;20217;-82
2023/04/23 06:35:49;;;;;;;6.60;5.68;;;;;;;;;;10282041;28;20226;-82
2023/04/23 06:40:50;;;;;;;11.00;7.22;;;;;;;;;;10267317;28;20225;-82
2023/04/23 06:45:51;;;;;;;13.93;10.35;;;;;;;;;;10279814;28;20232;-81
2023/04/23 06:50:52;;;;;;;23.13;10.05;;;;;;;;;;10277639;28;20715;-81
2023/04/23 06:55:53;;;;;;;23.85;12.25;;;;;;;;;;10258012;28;20229;-82
2023/04/23 07:00:54;;;;;;;23.05;12.57;;;;;;;;;;10250134;28;20255;-80
2023/04/23 07:05:55;;;;;;;21.92;12.02;;;;;;;;;;10248954;28;20232;-80
2023/04/23 07:10:56;;;;;;;23.70;12.68;;;;;;;;;;10256028;28;20683;-81
2023/04/23 07:15:57;;;;;;;24.90;13.52;;;;;;;;;;10236779;28;20232;-81
2023/04/23 07:20:59;;;;;;;26.08;14.00;;;;;;;;;;10233239;28;20744;-80
2023/04/23 07:26:00;;;;;;;26.50;14.10;;;;;;;;;;10264256;28;20316;-81
2023/04/23 07:31:02;;;;;;;22.83;13.15;;;;;;;;;;10265301;28;20221;-81
2023/04/23 07:36:03;;;;;;;19.13;11.65;;;;;;;;;;10266953;28;20324;-81
2023/04/23 07:41:04;;;;;;;26.02;13.98;;;;;;;;;;10267147;28;20224;-81
2023/04/23 07:46:05;;;;;;;25.35;14.10;;;;;;;;;;10279253;28;20279;-81
2023/04/23 07:51:06;;;;;;;21.90;12.60;;;;;;;;;;10262403;28;20591;-81
2023/04/23 07:56:07;;;;;;;22.70;13.30;;;;;;;;;;10265401;28;20221;-80
2023/04/23 08:01:08;;;;;;;24.88;14.43;;;;;;;;;;10278258;28;20456;-83
2023/04/23 08:06:11;;;;;;;23.48;12.82;;;;;;;;;;10275106;28;20245;-82
2023/04/23 08:11:12;;;;;;;21.10;12.25;;;;;;;;;;10259992;28;20221;-80
2023/04/23 08:16:13;;;;;;;20.25;12.63;;;;;;;;;;10261136;28;20220;-81
2023/04/23 08:21:13;;;;;;;19.10;12.13;;;;;;;;;;10276089;28;20224;-80
2023/04/23 08:26:14;;;;;;;22.05;12.88;;;;;;;;;;10278899;28;20237;-80
2023/04/23 08:31:16;;;;;;;19.67;11.57;;;;;;;;;;10259900;28;20304;-80
2023/04/23 08:36:17;;;;;;;18.40;11.48;;;;;;;;;;10253854;28;20264;-80
2023/04/23 08:41:20;;;;;;;17.75;10.73;;;;;;;;;;10258279;28;20585;-81
2023/04/23 08:46:22;;;;;;;17.02;11.48;;;;;;;;;;10272122;28;20610;-81
2023/04/23 08:51:24;;;;;;;15.40;10.73;;;;;;;;;;10274510;28;20504;-80
2023/04/23 08:56:26;;;;;;;14.10;10.45;;;;;;;;;;10260911;28;20326;-80
2023/04/23 09:01:27;;;;;;;14.55;10.48;;;;;;;;;;10242497;28;20649;-80
2023/04/23 09:06:31;;;;;;;16.85;10.63;;;;;;;;;;10264783;28;20232;-80
2023/04/23 09:11:32;;;;;;;12.18;9.48;;;;;;;;;;10247562;28;20227;-80
2023/04/23 09:16:33;;;;;;;13.27;9.25;;;;;;;;;;10237782;28;20231;-81
2023/04/23 09:21:34;;;;;;;11.32;9.02;;;;;;;;;;10266332;28;20221;-80
2023/04/23 09:26:36;;;;;;;11.70;8.40;;;;;;;;;;10277326;28;20284;-80
2023/04/23 09:31:37;;;;;;;7.63;6.82;;;;;;;;;;10257587;28;20748;-80
2023/04/23 09:36:38;;;;;;;9.35;8.10;;;;;;;;;;10248282;28;20221;-81
2023/04/23 09:41:39;;;;;;;9.70;7.93;;;;;;;;;;10274744;28;20635;-80
2023/04/23 09:46:41;;;;;;;7.25;6.28;;;;;;;;;;10274627;28;20224;-83
2023/04/23 09:51:45;;;;;;;5.88;5.07;;;;;;;;;;10266249;28;20217;-81
2023/04/23 09:56:49;;;;;;;5.05;4.60;;;;;;;;;;10272087;28;20460;-80
2023/04/23 10:01:51;;;;;;;4.72;4.32;;;;;;;;;;10272892;28;20231;-80
2023/04/23 10:06:56;;;;;;;4.65;4.18;;;;;;;;;;10258115;28;20540;-81
2023/04/23 10:11:58;;;;;;;5.72;5.32;;;;;;;;;;10249888;28;20222;-80
2023/04/23 10:17:00;;;;;;;6.22;5.63;;;;;;;;;;10273378;28;20221;-80
2023/04/23 10:22:06;;;;;;;6.38;5.28;;;;;;;;;;10264340;28;20221;-80
2023/04/23 10:27:10;;;;;;;7.18;6.22;;;;;;;;;;10273714;28;20252;-80
2023/04/23 10:32:12;;;;;;;9.10;6.85;;;;;;;;;;10235052;28;20266;-82
2023/04/23 10:37:20;;;;;;;6.35;5.85;;;;;;;;;;10240050;28;20222;-79
2023/04/23 10:42:21;;;;;;;7.22;6.53;;;;;;;;;;10270366;28;20233;-82
2023/04/23 10:47:22;;;;;;;8.57;7.78;;;;;;;;;;10253000;28;20546;-80
2023/04/23 10:52:23;;;;;;;7.55;6.85;;;;;;;;;;10258762;28;20627;-81
2023/04/23 10:57:24;;;;;;;8.35;7.65;;;;;;;;;;10239502;28;20622;-82
2023/04/23 11:02:25;;;;;;;8.10;7.32;;;;;;;;;;10268480;28;20222;-79
2023/04/23 11:07:30;;;;;;;8.13;7.32;;;;;;;;;;10268076;28;20323;-79
2023/04/23 11:12:32;;;;;;;8.10;7.28;;;;;;;;;;10249204;28;20225;-80
2023/04/23 11:17:33;;;;;;;7.20;6.60;;;;;;;;;;10239900;28;20230;-79
2023/04/23 11:22:35;;;;;;;6.30;5.78;;;;;;;;;;10256799;28;20489;-79
2023/04/23 11:27:40;;;;;;;4.47;4.07;;;;;;;;;;10258221;28;20272;-79
2023/04/23 11:32:43;;;;;;;4.88;4.47;;;;;;;;;;10251553;28;20225;-79
2023/04/23 11:37:45;;;;;;;4.13;3.90;;;;;;;;;;10257465;28;20283;-79
2023/04/23 11:42:46;;;;;;;3.40;3.10;;;;;;;;;;10271292;28;20225;-80
2023/04/23 11:47:49;;;;;;;3.78;3.47;;;;;;;;;;10254717;28;20703;-77
2023/04/23 11:52:51;;;;;;;3.45;3.15;;;;;;;;;;10253555;28;20222;-79
2023/04/23 11:57:52;;;;;;;3.55;3.35;;;;;;;;;;10256971;28;20229;-79
2023/04/23 12:02:54;;;;;;;2.92;2.83;;;;;;;;;;10253435;28;20217;-80
2023/04/23 12:08:06;;;;;;;2.10;2.10;;;;;;;;;;10259831;28;20569;-78
2023/04/23 12:13:07;;;;;;;2.40;2.30;;;;;;;;;;10255812;28;20253;-79
2023/04/23 12:18:09;;;;;;;2.22;2.22;;;;;;;;;;10274732;28;20218;-78
2023/04/23 12:23:10;;;;;;;2.75;2.60;;;;;;;;;;10261857;28;20578;-78
2023/04/23 12:28:12;;;;;;;2.58;2.58;;;;;;;;;;10274152;28;20505;-79
2023/04/23 12:33:13;;;;;;;1.77;1.70;;;;;;;;;;10273071;28;20280;-79
2023/04/23 12:38:24;;;;;;;2.45;2.45;;;;;;;;;;10254521;28;20221;-80
2023/04/23 12:43:25;;;;;;;2.10;2.10;;;;;;;;;;10256035;28;20249;-81
2023/04/23 12:48:26;;;;;;;2.35;1.90;;;;;;;;;;10256998;28;20214;-79
2023/04/23 12:53:27;;;;;;;1.75;1.65;;;;;;;;;;10249524;28;20209;-79
2023/04/23 12:58:30;;;;;;;2.00;1.90;;;;;;;;;;10257392;28;20226;-78
2023/04/23 13:03:31;;;;;;;1.15;1.15;;;;;;;;;;10269297;28;20225;-79
2023/04/23 13:08:32;;;;;;;1.17;1.17;;;;;;;;;;10258298;28;20221;-78
2023/04/23 13:13:33;;;;;;;1.08;1.08;;;;;;;;;;10277606;28;20217;-79
2023/04/23 13:18:34;;;;;;;1.00;1.00;;;;;;;;;;10274543;28;20244;-79
2023/04/23 13:23:35;;;;;;;1.08;1.05;;;;;;;;;;10273781;28;20221;-79
2023/04/23 13:28:36;;;;;;;0.90;0.90;;;;;;;;;;10272983;28;20225;-79
2023/04/23 13:33:38;;;;;;;0.82;0.82;;;;;;;;;;10261193;28;20221;-79
2023/04/23 13:38:39;;;;;;;1.20;1.20;;;;;;;;;;10248393;28;20715;-79
2023/04/23 13:43:40;;;;;;;1.13;1.13;;;;;;;;;;10263132;28;20214;-79
2023/04/23 13:48:41;;;;;;;0.73;0.73;;;;;;;;;;10267686;28;20245;-79
2023/04/23 13:53:42;;;;;;;0.73;0.73;;;;;;;;;;10266239;28;20723;-78
2023/04/23 13:58:46;;;;;;;0.65;0.50;;;;;;;;;;10269004;28;20233;-79
2023/04/23 14:03:47;;;;;;;0.95;0.95;;;;;;;;;;10264793;28;20314;-79
2023/04/23 14:08:48;;;;;;;0.80;0.80;;;;;;;;;;10266484;28;20222;-79
2023/04/23 14:13:49;;;;;;;0.60;0.60;;;;;;;;;;10272288;28;20303;-79
2023/04/23 14:18:50;;;;;;;0.70;0.70;;;;;;;;;;10266652;28;20730;-80
2023/04/23 14:23:55;;;;;;;0.70;0.70;;;;;;;;;;10279608;28;20228;-81
2023/04/23 14:29:01;;;;;;;0.70;0.70;;;;;;;;;;10277803;28;20221;-78
2023/04/23 14:34:02;;;;;;;0.60;0.60;;;;;;;;;;10261767;28;20312;-80
2023/04/23 14:39:04;;;;;;;0.60;0.60;;;;;;;;;;10280832;28;20229;-78
2023/04/23 14:44:05;;;;;;;0.80;0.63;;;;;;;;;;10278572;28;20225;-78
2023/04/23 14:49:06;;;;;;;0.63;0.63;;;;;;;;;;10262277;28;20735;-79
2023/04/23 14:54:07;;;;;;;0.70;0.70;;;;;;;;;;10264493;28;20230;-81
2023/04/23 14:59:08;;;;;;;0.50;0.50;;;;;;;;;;10263852;28;20269;-79
2023/04/23 15:04:10;;;;;;;0.50;0.50;;;;;;;;;;10278126;28;20284;-78
2023/04/23 15:09:11;;;;;;;0.60;0.50;;;;;;;;;;10272997;28;20218;-80
2023/04/23 15:14:30;;;;;;;0.65;0.65;;;;;;;;;;10259142;28;20253;-78
2023/04/23 15:19:31;;;;;;;0.60;0.60;;;;;;;;;;10272634;28;20228;-79
2023/04/23 15:24:32;;;;;;;1.55;0.60;;;;;;;;;;10256093;28;20228;-80
2023/04/23 15:29:33;;;;;;;0.60;0.60;;;;;;;;;;10254969;28;20217;-78
2023/04/23 15:34:34;;;;;;;0.70;0.70;;;;;;;;;;10240126;28;20771;-79
2023/04/23 15:39:35;;;;;;;1.10;0.60;;;;;;;;;;10259864;28;20272;-78
2023/04/23 15:44:36;;;;;;;1.17;0.60;;;;;;;;;;10280262;28;20222;-78
2023/04/23 15:49:37;;;;;;;1.00;0.60;;;;;;;;;;10264757;28;20238;-80
2023/04/23 15:54:39;;;;;;;0.90;0.90;;;;;;;;;;10255702;28;20221;-79
2023/04/23 15:59:40;;;;;;;0.80;0.80;;;;;;;;;;10265223;28;20752;-78
2023/04/23 16:04:41;;;;;;;0.90;0.90;;;;;;;;;;10255559;28;20667;-79
2023/04/23 16:09:42;;;;;;;0.88;0.88;;;;;;;;;;10269215;28;20603;-78
2023/04/23 16:14:43;;;;;;;3.35;0.80;;;;;;;;;;10282592;28;20225;-79
2023/04/23 16:19:45;;;;;;;0.85;0.85;;;;;;;;;;10256910;28;20313;-81
2023/04/23 16:24:46;;;;;;;0.90;0.90;;;;;;;;;;10256042;28;20252;-80
2023/04/23 16:29:47;;;;;;;0.65;0.65;;;;;;;;;;10260246;28;20221;-78
2023/04/23 16:34:48;;;;;;;0.70;0.70;;;;;;;;;;10250594;28;20221;-80
2023/04/23 16:39:49;;;;;;;0.68;0.68;;;;;;;;;;10245266;28;20639;-79
2023/04/23 16:44:50;;;;;;;0.70;0.70;;;;;;;;;;10261973;28;20249;-79
2023/04/23 16:49:51;;;;;;;0.50;0.50;;;;;;;;;;10267583;28;20300;-79
2023/04/23 16:54:53;;;;;;;1.17;0.55;;;;;;;;;;10233469;28;20788;-81
2023/04/23 16:59:54;;;;;;;0.73;0.73;;;;;;;;;;10224803;28;20796;-79
2023/04/23 17:04:55;;;;;;;1.55;0.60;;;;;;;;;;10248614;28;20224;-79
2023/04/23 17:09:56;;;;;;;0.50;0.50;;;;;;;;;;10234576;28;20232;-80
2023/04/23 17:14:57;;;;;;;2.47;0.50;;;;;;;;;;10257986;28;20228;-79
2023/04/23 17:19:58;;;;;;;0.50;0.50;;;;;;;;;;10267631;28;20800;-80
2023/04/23 17:24:59;;;;;;;0.60;0.60;;;;;;;;;;10225594;28;20222;-78
2023/04/23 17:30:00;;;;;;;0.68;0.68;;;;;;;;;;10260788;28;20220;-79
2023/04/23 17:35:01;;;;;;;0.68;0.50;;;;;;;;;;10252382;28;20217;-78
2023/04/23 17:40:03;;;;;;;2.05;0.55;;;;;;;;;;10262122;28;20212;-79
2023/04/23 17:45:05;;;;;;;0.52;0.52;;;;;;;;;;10255715;28;20217;-82
2023/04/23 17:50:08;;;;;;;1.85;0.70;;;;;;;;;;10253397;28;20216;-80
2023/04/23 17:55:10;;;;;;;0.63;0.50;;;;;;;;;;10263827;28;20222;-79
2023/04/23 18:00:12;;;;;;;0.50;0.50;;;;;;;;;;10273656;28;20225;-78
2023/04/23 18:05:14;;;;;;;1.17;0.75;;;;;;;;;;10262670;28;20212;-77
2023/04/23 18:10:15;;;;;;;0.68;0.68;;;;;;;;;;10268587;28;20204;-79
2023/04/23 18:15:16;;;;;;;0.50;0.50;;;;;;;;;;10253542;28;20301;-78
2023/04/23 18:20:17;;;;;;;9.35;5.43;;;;;;;;;;10258629;28;20209;-78
2023/04/23 18:25:19;;;;;;;13.85;8.18;;;;;;;;;;10261411;28;20224;-77
2023/04/23 18:30:22;;;;;;;5.25;4.03;;;;;;;;;;10236570;28;20212;-78
2023/04/23 18:35:23;;;;;;;18.83;11.32;;;;;;;;;;10225616;28;20231;-78
2023/04/23 18:40:24;;;;;;;6.35;5.75;;;;;;;;;;10226806;28;20267;-80
2023/04/23 18:45:25;;;;;;;19.25;13.05;;;;;;;;;;10248465;28;20727;-78
2023/04/23 18:50:30;;;;;;;7.68;7.00;;;;;;;;;;10240140;28;20213;-80
2023/04/23 18:55:31;;;;;;;7.90;6.30;;;;;;;;;;10236503;28;20241;-78
2023/04/23 19:00:32;;;;;;;3.88;3.58;;;;;;;;;;10240516;28;20236;-79
2023/04/23 19:05:33;;;;;;;48.35;29.48;;;;;;;;;;10251716;28;20292;-78
2023/04/23 19:10:34;;;;;;;26.80;18.42;;;;;;;;;;10270435;28;20225;-78
2023/04/23 19:15:35;;;;;;;44.67;27.75;;;;;;;;;;10251639;28;20252;-81
2023/04/23 19:20:36;;;;;;;20.42;13.27;;;;;;;;;;10254470;28;20310;-78
2023/04/23 19:25:38;;;;;;;46.67;28.05;;;;;;;;;;10250617;28;20235;-79
2023/04/23 19:30:39;;;;;;;6.57;5.95;;;;;;;;;;10237148;28;20251;-78
2023/04/23 19:35:40;;;;;;;7.95;7.35;;;;;;;;;;10254819;28;20283;-80
2023/04/23 19:40:41;;;;;;;6.97;6.30;;;;;;;;;;10256022;28;20224;-75
2023/04/23 19:45:42;;;;;;;1.52;1.30;;;;;;;;;;10257091;28;20278;-76
2023/04/23 19:50:43;;;;;;;0.98;0.93;;;;;;;;;;10271946;28;20231;-78
2023/04/23 19:55:44;;;;;;;2.33;0.85;;;;;;;;;;10278093;28;20221;-78
2023/04/23 20:00:45;;;;;;;0.98;0.98;;;;;;;;;;10257304;28;20229;-78
2023/04/23 20:05:48;;;;;;;0.70;0.70;;;;;;;;;;10267540;28;20225;-78
2023/04/23 20:10:49;;;;;;;2.50;0.80;;;;;;;;;;10274677;28;20214;-78
2023/04/23 20:15:52;;;;;;;1.65;0.82;;;;;;;;;;10270070;28;20599;-79
2023/04/23 20:20:53;;;;;;;0.75;0.75;;;;;;;;;;10261274;28;20222;-78
2023/04/23 20:25:54;;;;;;;0.98;0.98;;;;;;;;;;10257202;28;20225;-80
2023/04/23 20:30:55;;;;;;;1.20;0.85;;;;;;;;;;10255426;28;20213;-80
2023/04/23 20:35:57;;;;;;;1.10;1.10;;;;;;;;;;10276797;28;20980;-78
2023/04/23 20:41:01;;;;;;;2.47;0.90;;;;;;;;;;10273507;28;20699;-80
2023/04/23 20:46:02;;;;;;;1.10;1.00;;;;;;;;;;10256821;28;20716;-78
2023/04/23 20:51:03;;;;;;;2.92;0.98;;;;;;;;;;10277444;28;20818;-77
2023/04/23 20:56:04;;;;;;;0.95;0.70;;;;;;;;;;10234357;28;20218;-80
2023/04/23 21:01:06;;;;;;;1.48;0.80;;;;;;;;;;10233293;28;20236;-77
2023/04/23 21:06:08;;;;;;;0.80;0.80;;;;;;;;;;10277131;28;20656;-78
2023/04/23 21:11:12;;;;;;;1.08;1.00;;;;;;;;;;10235596;28;20218;-78
2023/04/23 21:16:13;;;;;;;0.80;0.80;;;;;;;;;;10254346;28;20217;-78
2023/04/23 21:21:15;;;;;;;1.33;1.25;;;;;;;;;;10251614;28;20221;-76
2023/04/23 21:26:16;;;;;;;0.98;0.98;;;;;;;;;;10253742;28;20240;-79
2023/04/23 21:31:21;;;;;;;1.70;1.00;;;;;;;;;;10271761;28;20217;-74
2023/04/23 21:36:22;;;;;;;1.10;0.98;;;;;;;;;;10259775;28;20759;-77
2023/04/23 21:41:23;;;;;;;1.00;1.00;;;;;;;;;;10258211;28;20669;-80
2023/04/23 21:46:24;;;;;;;1.00;1.00;;;;;;;;;;10229503;28;20315;-77
2023/04/23 21:51:26;;;;;;;2.15;1.00;;;;;;;;;;10259853;28;20517;-78
2023/04/23 21:56:28;;;;;;;1.52;1.10;;;;;;;;;;10271011;28;21056;-78
2023/04/23 22:01:30;;;;;;;2.90;0.90;;;;;;;;;;10268845;28;20233;-78
2023/04/23 22:06:33;;;;;;;1.10;1.10;;;;;;;;;;10237718;28;20221;-79
2023/04/23 22:11:34;;;;;;;0.80;0.80;;;;;;;;;;10237439;28;20232;-79
2023/04/23 22:16:35;;;;;;;1.05;1.05;;;;;;;;;;10232536;28;20268;-78
2023/04/23 22:21:36;;;;;;;2.33;1.00;;;;;;;;;;10255392;28;20308;-75
2023/04/23 22:26:37;;;;;;;1.48;1.10;;;;;;;;;;10245327;28;20682;-78
2023/04/23 22:31:38;;;;;;;0.90;0.90;;;;;;;;;;10267174;28;20213;-80
2023/04/23 22:36:41;;;;;;;1.05;0.93;;;;;;;;;;10258386;28;20498;-79
2023/04/23 22:41:43;;;;;;;1.25;0.80;;;;;;;;;;10268408;28;20217;-78
2023/04/23 22:46:44;;;;;;;0.90;0.90;;;;;;;;;;10258126;28;20256;-79
2023/04/23 22:51:45;;;;;;;0.98;0.98;;;;;;;;;;10266674;28;20221;-78
2023/04/23 22:56:46;;;;;;;1.50;1.40;;;;;;;;;;10251311;28;20217;-79
2023/04/23 23:01:48;;;;;;;1.85;1.20;;;;;;;;;;10256170;28;20217;-80
2023/04/23 23:06:49;;;;;;;2.15;1.10;;;;;;;;;;10265950;28;20224;-79
2023/04/23 23:11:50;;;;;;;1.13;1.13;;;;;;;;;;10243645;28;20226;-78
2023/04/23 23:16:51;;;;;;;0.90;0.90;;;;;;;;;;10242897;28;20247;-78
2023/04/23 23:21:52;;;;;;;1.45;1.02;;;;;;;;;;10253985;28;20234;-78
2023/04/23 23:26:53;;;;;;;1.08;1.08;;;;;;;;;;10252504;28;20225;-77
2023/04/23 23:31:56;;;;;;;1.13;1.13;;;;;;;;;;10256582;28;20308;-79
2023/04/23 23:36:57;;;;;;;1.23;1.13;;;;;;;;;;10253012;28;20229;-80
2023/04/23 23:41:58;;;;;;;2.67;1.90;;;;;;;;;;10255400;28;20795;-79
2023/04/23 23:46:59;;;;;;;1.83;1.80;;;;;;;;;;10254650;28;20627;-80
2023/04/23 23:52:01;;;;;;;2.60;2.17;;;;;;;;;;10267539;28;20226;-78
2023/04/23 23:57:02;;;;;;;1.90;1.80;;;;;;;;;;10262133;28;20221;-79
